Grosse Pointe Farms, Michigan
Current Conditions -  °F | °C
As of 8:07 PM on Friday 28 Nov 2014 (Local Time) from KDET Reporting Station
Overcast Overcast  
Wind Chill: 19°   Ceiling: 8000
Heat Index: 28°   Visibility: 8mi
Dew Point: 23°   Wind: 10mph
Humidity: 81%   Direction: 180°S
Pressure: 30.15"   Gusts: NA
Location:  42.4243°N, 82.8975°W
Report Text: KDET 290107Z 18009KT 8SM FEW011 SCT021 OVC080 M02/M05 A3015 RMK AO2 T10221050
Loading
Personal Weather Stations






























Interactive Weather Map New forecast layout! Learn more

10-Day Weather Forecast

Advertisements
Track Severe Weather on mobile